Time;durP1;ratioP1;P1;durP2;ratioP2;P2;SDS_P1;SDS_P2;PMS_P1;PMS_P2;Temp;Humidity;BMP_temperature;BMP_pressure;BME280_temperature;BME280_humidity;BME280_pressure;Samples;Min_cycle;Max_cycle;Signal;HPM_P1;HPM_P2
2023/05/07 00:00:43;;;;;;;9.18;5.38;;;16.40;70.60;;;;;;5077949;28;20323;-63
2023/05/07 00:03:08;;;;;;;7.57;4.82;;;16.40;70.90;;;;;;5077859;28;20429;-63
2023/05/07 00:05:35;;;;;;;5.93;4.35;;;16.40;71.00;;;;;;5077883;28;20373;-64
2023/05/07 00:08:00;;;;;;;8.85;5.50;;;16.40;70.80;;;;;;5076518;28;20049;-64
2023/05/07 00:10:26;;;;;;;7.82;4.80;;;16.40;70.90;;;;;;5077545;28;20067;-63
2023/05/07 00:12:52;;;;;;;6.97;4.57;;;16.40;70.80;;;;;;5077404;28;20036;-64
2023/05/07 00:15:18;;;;;;;8.52;5.15;;;16.40;70.80;;;;;;5077929;28;20069;-64
2023/05/07 00:17:44;;;;;;;6.35;4.47;;;16.40;70.90;;;;;;5077335;28;20362;-64
2023/05/07 00:20:10;;;;;;;6.60;4.50;;;16.40;71.00;;;;;;5077394;28;20035;-63
2023/05/07 00:22:36;;;;;;;6.72;4.78;;;16.40;70.90;;;;;;5077241;28;20029;-64
2023/05/07 00:25:02;;;;;;;7.38;4.68;;;16.40;71.00;;;;;;5077267;28;20028;-64
2023/05/07 00:27:28;;;;;;;6.90;4.57;;;16.40;71.10;;;;;;5077157;28;20032;-63
2023/05/07 00:29:54;;;;;;;7.60;4.82;;;16.40;71.10;;;;;;5077700;28;20016;-64
2023/05/07 00:32:20;;;;;;;5.80;4.40;;;16.30;71.10;;;;;;5077582;28;20074;-63
2023/05/07 00:34:46;;;;;;;7.32;5.00;;;16.30;71.20;;;;;;5076183;28;20008;-64
2023/05/07 00:37:12;;;;;;;7.43;4.85;;;16.40;71.30;;;;;;5077513;28;20024;-64
2023/05/07 00:39:38;;;;;;;8.77;4.82;;;16.40;71.30;;;;;;5077487;28;20456;-64
2023/05/07 00:42:04;;;;;;;8.63;5.47;;;16.40;71.30;;;;;;5076868;28;20028;-64
2023/05/07 00:44:30;;;;;;;8.70;5.90;;;16.40;71.40;;;;;;5076875;28;20370;-64
2023/05/07 00:46:57;;;;;;;10.85;6.75;;;16.40;71.40;;;;;;5076746;28;20024;-64
2023/05/07 00:49:35;;;;;;;9.68;6.20;;;16.40;71.60;;;;;;5076782;28;20016;-63
2023/05/07 00:52:01;;;;;;;12.95;6.47;;;16.40;71.60;;;;;;5076972;28;20477;-64
2023/05/07 00:54:27;;;;;;;9.45;6.68;;;16.40;71.60;;;;;;5076669;28;20079;-63
2023/05/07 00:56:54;;;;;;;10.82;5.78;;;16.30;71.60;;;;;;5077162;28;20052;-64
2023/05/07 00:59:20;;;;;;;8.57;5.80;;;16.40;71.60;;;;;;5076839;28;20021;-64
2023/05/07 01:01:47;;;;;;;9.27;6.07;;;16.40;71.70;;;;;;5076480;28;20029;-64
2023/05/07 01:04:13;;;;;;;9.80;6.40;;;16.40;71.70;;;;;;5076476;28;20090;-64
2023/05/07 01:06:39;;;;;;;10.45;7.00;;;16.30;71.70;;;;;;5076953;28;20433;-64
2023/05/07 01:09:06;;;;;;;9.30;6.07;;;16.30;71.80;;;;;;5076570;28;20536;-64
2023/05/07 01:11:31;;;;;;;10.48;6.50;;;16.40;71.80;;;;;;5076477;28;20052;-64
2023/05/07 01:13:59;;;;;;;10.05;6.18;;;16.40;71.80;;;;;;5076179;28;20445;-64
2023/05/07 01:16:25;;;;;;;8.68;6.15;;;16.30;71.80;;;;;;5076257;28;20111;-64
2023/05/07 01:18:51;;;;;;;9.30;6.30;;;16.30;71.80;;;;;;5076205;28;20071;-64
2023/05/07 01:21:18;;;;;;;11.45;6.68;;;16.40;71.80;;;;;;5075145;28;20115;-63
2023/05/07 01:23:45;;;;;;;10.88;6.22;;;16.30;71.80;;;;;;5075079;28;20415;-64
2023/05/07 01:26:11;;;;;;;11.10;6.22;;;16.30;71.80;;;;;;5076052;28;20016;-64
2023/05/07 01:28:37;;;;;;;9.57;6.72;;;16.30;71.80;;;;;;5075916;28;20078;-64
2023/05/07 01:31:05;;;;;;;12.85;7.30;;;16.30;71.80;;;;;;5076646;28;20401;-64
2023/05/07 01:33:35;;;;;;;9.18;6.30;;;16.30;71.90;;;;;;5075796;28;20453;-63
2023/05/07 01:36:03;;;;;;;10.77;8.15;;;16.30;71.90;;;;;;5076032;28;20024;-64
2023/05/07 01:38:29;;;;;;;11.60;8.00;;;16.20;72.00;;;;;;5075738;28;20082;-63
2023/05/07 01:40:56;;;;;;;11.50;7.57;;;16.20;71.90;;;;;;5076041;28;20039;-64
2023/05/07 01:43:22;;;;;;;10.57;7.45;;;16.10;72.00;;;;;;5075628;28;20036;-64
2023/05/07 01:45:49;;;;;;;10.23;7.30;;;16.10;72.20;;;;;;5075728;28;20078;-64
2023/05/07 01:48:15;;;;;;;10.80;7.30;;;16.10;72.30;;;;;;5075526;28;20388;-63
2023/05/07 01:50:43;;;;;;;9.27;6.88;;;16.10;72.30;;;;;;5075838;28;20029;-64
2023/05/07 01:53:09;;;;;;;9.18;6.15;;;16.00;72.40;;;;;;5075488;28;20024;-64
2023/05/07 01:55:36;;;;;;;9.38;6.70;;;16.00;72.30;;;;;;5075363;28;20143;-63
2023/05/07 01:58:03;;;;;;;10.13;7.65;;;16.00;72.30;;;;;;5075468;28;20039;-64
2023/05/07 02:00:29;;;;;;;12.93;8.63;;;16.00;72.30;;;;;;5075718;28;20094;-64
2023/05/07 02:02:55;;;;;;;11.30;8.15;;;16.00;72.40;;;;;;5075353;28;20094;-64
2023/05/07 02:05:21;;;;;;;10.70;7.47;;;15.90;72.60;;;;;;5075409;28;20442;-63
2023/05/07 02:07:47;;;;;;;12.02;7.72;;;15.90;72.60;;;;;;5075555;28;20349;-64
2023/05/07 02:10:13;;;;;;;11.55;8.15;;;15.90;72.60;;;;;;5075817;28;20028;-63
2023/05/07 02:12:39;;;;;;;10.70;7.65;;;15.80;72.80;;;;;;5075264;28;20100;-64
2023/05/07 02:15:05;;;;;;;11.35;8.13;;;15.80;72.70;;;;;;5075286;28;20024;-63
2023/05/07 02:17:32;;;;;;;11.85;8.18;;;15.90;72.90;;;;;;5075812;28;20035;-64
2023/05/07 02:19:59;;;;;;;11.82;7.95;;;15.80;73.00;;;;;;5075108;28;20109;-63
2023/05/07 02:22:25;;;;;;;10.07;7.57;;;15.80;72.90;;;;;;5075134;28;20031;-64
2023/05/07 02:24:51;;;;;;;12.73;9.00;;;15.70;73.00;;;;;;5075439;28;20024;-64
2023/05/07 02:27:17;;;;;;;13.48;9.52;;;15.60;73.30;;;;;;5075625;28;20403;-63
2023/05/07 02:29:43;;;;;;;12.75;8.50;;;15.60;73.80;;;;;;5075111;28;20024;-63
2023/05/07 02:32:09;;;;;;;15.48;10.95;;;15.60;73.60;;;;;;5075600;28;20021;-64
2023/05/07 02:34:35;;;;;;;12.95;8.63;;;15.50;74.00;;;;;;5075028;28;20362;-64
2023/05/07 02:37:01;;;;;;;12.45;8.52;;;15.50;74.00;;;;;;5075590;28;20025;-63
2023/05/07 02:39:27;;;;;;;12.35;8.40;;;15.50;73.90;;;;;;5075046;28;20102;-64
2023/05/07 02:41:53;;;;;;;10.10;6.75;;;15.50;74.00;;;;;;5074934;28;20060;-63
2023/05/07 02:44:19;;;;;;;10.45;6.43;;;15.50;73.80;;;;;;5075246;28;20021;-63
2023/05/07 02:46:45;;;;;;;11.90;7.90;;;15.60;73.70;;;;;;5075012;28;20032;-63
2023/05/07 02:49:11;;;;;;;12.55;7.78;;;15.60;73.50;;;;;;5074865;28;20028;-64
2023/05/07 02:51:37;;;;;;;10.95;7.10;;;15.60;73.40;;;;;;5075095;28;20021;-64
2023/05/07 02:54:02;;;;;;;9.70;6.53;;;15.60;73.50;;;;;;5074889;28;20052;-63
2023/05/07 02:56:28;;;;;;;10.20;6.82;;;15.70;73.40;;;;;;5075460;28;20111;-64
2023/05/07 02:58:54;;;;;;;12.50;7.30;;;15.70;73.30;;;;;;5077783;28;20025;-63
2023/05/07 03:01:20;;;;;;;9.18;6.22;;;15.70;73.30;;;;;;5078741;28;20029;-63
2023/05/07 03:03:46;;;;;;;10.02;5.90;;;15.70;73.30;;;;;;5078851;28;20032;-64
2023/05/07 03:06:12;;;;;;;9.13;6.18;;;15.70;73.30;;;;;;5078737;28;20566;-64
2023/05/07 03:08:38;;;;;;;8.63;5.90;;;15.70;73.30;;;;;;5078609;28;20104;-64
2023/05/07 03:11:04;;;;;;;9.32;6.43;;;15.70;73.30;;;;;;5079209;28;20112;-64
2023/05/07 03:13:30;;;;;;;9.40;6.07;;;15.70;73.30;;;;;;5078455;28;20035;-63
2023/05/07 03:15:56;;;;;;;9.40;6.28;;;15.70;73.30;;;;;;5078549;28;20035;-64
2023/05/07 03:18:22;;;;;;;8.07;5.82;;;15.60;73.30;;;;;;5078479;28;20055;-64
2023/05/07 03:20:48;;;;;;;10.80;6.88;;;15.60;73.30;;;;;;5078443;28;20044;-63
2023/05/07 03:23:14;;;;;;;8.00;5.70;;;15.60;73.30;;;;;;5078460;28;20020;-64
2023/05/07 03:25:40;;;;;;;10.23;6.82;;;15.60;73.40;;;;;;5078612;28;20032;-64
2023/05/07 03:28:06;;;;;;;9.45;6.80;;;15.50;73.50;;;;;;5078170;28;20450;-64
2023/05/07 03:30:32;;;;;;;8.90;6.20;;;15.50;73.50;;;;;;5078526;28;20035;-64
2023/05/07 03:32:58;;;;;;;9.32;6.80;;;15.40;73.60;;;;;;5078453;28;20058;-63
2023/05/07 03:35:24;;;;;;;9.23;6.55;;;15.40;73.60;;;;;;5078714;28;20496;-64
2023/05/07 03:37:50;;;;;;;9.02;6.00;;;15.40;73.70;;;;;;5078068;28;20032;-64
2023/05/07 03:40:16;;;;;;;9.82;6.38;;;15.40;73.70;;;;;;5078349;28;20028;-64
2023/05/07 03:42:42;;;;;;;11.15;7.68;;;15.40;73.80;;;;;;5077987;28;20045;-63
2023/05/07 03:45:09;;;;;;;10.85;6.78;;;15.40;73.80;;;;;;5078531;28;20033;-64
2023/05/07 03:47:35;;;;;;;10.55;7.38;;;15.30;73.80;;;;;;5078159;28;20025;-63
2023/05/07 03:50:01;;;;;;;11.23;7.57;;;15.30;73.80;;;;;;5078170;28;20028;-64
2023/05/07 03:52:27;;;;;;;11.90;8.50;;;15.30;74.00;;;;;;5078324;28;20024;-64
2023/05/07 03:54:53;;;;;;;11.13;6.60;;;15.30;74.30;;;;;;5077858;28;20049;-64
2023/05/07 03:57:20;;;;;;;11.60;7.45;;;15.20;74.10;;;;;;5078302;28;20051;-63
2023/05/07 03:59:46;;;;;;;9.65;7.00;;;15.20;74.10;;;;;;5078017;28;20035;-63
2023/05/07 04:02:11;;;;;;;10.30;7.43;;;15.20;74.10;;;;;;5077909;28;20393;-64
2023/05/07 04:04:37;;;;;;;14.85;9.00;;;15.30;74.20;;;;;;5078197;28;20029;-64
2023/05/07 04:07:04;;;;;;;10.63;7.35;;;15.20;74.10;;;;;;5078047;28;20357;-63
2023/05/07 04:09:30;;;;;;;10.68;7.28;;;15.20;74.10;;;;;;5076220;28;20052;-63
2023/05/07 04:11:56;;;;;;;10.93;7.70;;;15.30;74.10;;;;;;5077393;28;20074;-63
2023/05/07 04:14:22;;;;;;;11.60;7.95;;;15.30;74.10;;;;;;5077503;28;20032;-64
2023/05/07 04:16:48;;;;;;;10.50;7.07;;;15.30;74.10;;;;;;5077429;28;20430;-64
2023/05/07 04:19:14;;;;;;;8.88;6.65;;;15.30;74.00;;;;;;5077869;28;20108;-63
2023/05/07 04:21:40;;;;;;;9.68;6.95;;;15.40;74.00;;;;;;5076257;28;20028;-64
2023/05/07 04:24:06;;;;;;;10.82;6.90;;;15.40;73.90;;;;;;5077290;28;20032;-63
2023/05/07 04:26:32;;;;;;;8.77;6.20;;;15.40;73.90;;;;;;5077504;28;20028;-63
2023/05/07 04:28:59;;;;;;;9.95;6.25;;;15.50;73.90;;;;;;5077148;28;20060;-63
2023/05/07 04:31:25;;;;;;;10.10;7.10;;;15.60;73.80;;;;;;5077058;28;20025;-64
2023/05/07 04:33:51;;;;;;;11.15;6.90;;;15.60;73.60;;;;;;5077651;28;20551;-63
2023/05/07 04:36:17;;;;;;;10.52;7.32;;;15.80;73.70;;;;;;5077042;28;20105;-63
2023/05/07 04:38:43;;;;;;;10.40;7.05;;;15.90;73.60;;;;;;5076940;28;20319;-64
2023/05/07 04:41:09;;;;;;;11.18;6.97;;;15.90;73.40;;;;;;5077235;28;20031;-63
2023/05/07 04:43:35;;;;;;;10.35;7.07;;;16.00;73.30;;;;;;5076874;28;20471;-64
2023/05/07 04:46:01;;;;;;;10.82;7.45;;;16.20;73.10;;;;;;5077110;28;20090;-64
2023/05/07 04:48:28;;;;;;;13.80;7.90;;;16.30;73.00;;;;;;5077010;28;20441;-63
2023/05/07 04:50:54;;;;;;;14.50;7.95;;;16.50;72.70;;;;;;5076679;28;20032;-63
2023/05/07 04:53:21;;;;;;;12.25;7.45;;;16.60;72.50;;;;;;5076585;28;20025;-64
2023/05/07 04:55:47;;;;;;;10.57;7.25;;;16.80;72.50;;;;;;5076391;28;20091;-64
2023/05/07 04:58:13;;;;;;;9.55;7.00;;;16.90;72.40;;;;;;5076869;28;20495;-64
2023/05/07 05:00:39;;;;;;;11.60;7.72;;;17.20;72.20;;;;;;5076547;28;20364;-63
2023/05/07 05:03:07;;;;;;;12.05;7.57;;;17.50;71.60;;;;;;5076976;28;20029;-64
2023/05/07 05:05:33;;;;;;;9.65;7.07;;;17.80;71.00;;;;;;5076712;28;20028;-63
2023/05/07 05:07:59;;;;;;;10.23;7.13;;;18.10;70.80;;;;;;5076324;28;20497;-64
2023/05/07 05:10:25;;;;;;;11.43;7.43;;;18.40;70.30;;;;;;5077114;28;20060;-64
2023/05/07 05:12:51;;;;;;;9.77;6.95;;;18.60;69.70;;;;;;5076326;28;20012;-64
2023/05/07 05:15:18;;;;;;;9.25;7.05;;;18.90;69.30;;;;;;5076266;28;20040;-64
2023/05/07 05:17:44;;;;;;;11.00;6.82;;;19.20;68.70;;;;;;5076707;28;20020;-64
2023/05/07 05:20:12;;;;;;;13.43;9.25;;;19.50;68.10;;;;;;5076025;28;20055;-64
2023/05/07 05:22:39;;;;;;;9.88;6.80;;;19.60;67.60;;;;;;5076081;28;20509;-64
2023/05/07 05:25:05;;;;;;;10.93;7.32;;;19.70;67.20;;;;;;5076030;28;20123;-64
2023/05/07 05:27:31;;;;;;;12.75;7.85;;;19.70;66.90;;;;;;5076245;28;20103;-64
2023/05/07 05:29:57;;;;;;;11.65;7.40;;;19.70;66.80;;;;;;5076220;28;20063;-64
2023/05/07 05:32:23;;;;;;;9.90;7.20;;;19.60;66.80;;;;;;5075896;28;20405;-64
2023/05/07 05:34:49;;;;;;;12.02;7.78;;;19.70;66.70;;;;;;5075877;28;20029;-64
2023/05/07 05:37:15;;;;;;;14.32;9.02;;;19.80;66.70;;;;;;5075752;28;20092;-64
2023/05/07 05:39:42;;;;;;;12.75;10.05;;;19.90;66.60;;;;;;5075799;28;20461;-64
2023/05/07 05:42:08;;;;;;;13.40;9.85;;;20.00;66.20;;;;;;5075646;28;20035;-64
2023/05/07 05:44:34;;;;;;;15.50;11.13;;;20.40;66.00;;;;;;5076029;28;20021;-64
2023/05/07 05:47:00;;;;;;;12.73;9.63;;;20.90;65.70;;;;;;5075545;28;20060;-64
2023/05/07 05:49:26;;;;;;;15.18;9.48;;;21.50;64.80;;;;;;5075869;28;20024;-64
2023/05/07 05:51:51;;;;;;;11.88;9.00;;;21.90;63.50;;;;;;5075536;28;20536;-64
2023/05/07 05:54:18;;;;;;;10.15;8.25;;;22.10;62.90;;;;;;5075787;28;20055;-64
2023/05/07 05:56:44;;;;;;;14.02;9.60;;;22.60;62.40;;;;;;5075803;28;20335;-64
2023/05/07 05:59:10;;;;;;;11.57;9.13;;;23.30;61.80;;;;;;5075539;28;20348;-64
2023/05/07 06:01:38;;;;;;;12.63;9.45;;;24.00;60.80;;;;;;5075292;28;20465;-64
2023/05/07 06:04:04;;;;;;;11.55;8.95;;;24.90;59.40;;;;;;5074518;28;20025;-65
2023/05/07 06:06:31;;;;;;;12.18;9.68;;;25.70;57.80;;;;;;5075612;28;20032;-64
2023/05/07 06:08:57;;;;;;;11.10;8.75;;;26.50;56.10;;;;;;5075295;28;20043;-64
2023/05/07 06:11:23;;;;;;;11.07;8.68;;;27.40;54.90;;;;;;5075724;28;20375;-64
2023/05/07 06:13:49;;;;;;;9.25;6.95;;;28.30;53.70;;;;;;5075318;28;20513;-64
2023/05/07 06:16:16;;;;;;;10.00;7.35;;;29.20;51.90;;;;;;5075513;28;20049;-64
2023/05/07 06:18:41;;;;;;;14.77;7.75;;;29.90;50.20;;;;;;5075807;28;20028;-65
2023/05/07 06:21:07;;;;;;;9.25;7.18;;;30.60;49.00;;;;;;5075229;28;20024;-65
2023/05/07 06:23:33;;;;;;;9.07;6.75;;;31.10;48.00;;;;;;5075146;28;20021;-65
2023/05/07 06:25:59;;;;;;;10.23;6.63;;;31.50;47.10;;;;;;5074212;28;20028;-65
2023/05/07 06:28:25;;;;;;;8.02;6.28;;;31.90;46.30;;;;;;5075107;28;20425;-64
2023/05/07 06:30:51;;;;;;;7.35;6.10;;;32.00;45.60;;;;;;5075194;28;20024;-64
2023/05/07 06:33:17;;;;;;;7.80;5.82;;;32.20;45.30;;;;;;5074832;28;20021;-65
2023/05/07 06:35:43;;;;;;;8.27;6.13;;;32.50;44.60;;;;;;5075118;28;20029;-65
2023/05/07 06:38:09;;;;;;;7.55;5.70;;;32.90;44.10;;;;;;5075076;28;20029;-65
2023/05/07 06:40:35;;;;;;;7.30;5.80;;;33.10;43.40;;;;;;5075342;28;20098;-65
2023/05/07 06:43:01;;;;;;;8.07;5.97;;;33.40;42.60;;;;;;5074121;28;20074;-65
2023/05/07 06:45:27;;;;;;;6.88;5.55;;;33.50;42.10;;;;;;5074986;28;20043;-65
2023/05/07 06:47:53;;;;;;;7.93;5.30;;;33.60;41.60;;;;;;5074903;28;20024;-65
2023/05/07 06:50:19;;;;;;;7.07;5.28;;;33.80;40.90;;;;;;5075186;28;20039;-64
2023/05/07 06:52:45;;;;;;;6.28;5.05;;;34.00;40.30;;;;;;5073875;28;20357;-64
2023/05/07 06:55:11;;;;;;;7.93;5.10;;;33.90;39.80;;;;;;5074788;28;20485;-64
2023/05/07 06:57:37;;;;;;;9.02;5.28;;;33.60;40.00;;;;;;5074921;28;20033;-64
2023/05/07 07:00:06;;;;;;;6.70;5.20;;;33.30;40.30;;;;;;5075100;28;20032;-65
2023/05/07 07:02:32;;;;;;;8.82;5.70;;;32.90;40.60;;;;;;5073868;28;20067;-64
2023/05/07 07:04:58;;;;;;;6.95;5.25;;;32.50;41.30;;;;;;5075331;28;20055;-65
2023/05/07 07:07:24;;;;;;;7.97;5.68;;;32.00;41.90;;;;;;5075230;28;20028;-65
2023/05/07 07:09:51;;;;;;;8.80;5.82;;;31.70;42.40;;;;;;5075292;28;20356;-64
2023/05/07 07:12:17;;;;;;;8.55;5.75;;;31.40;42.90;;;;;;5074581;28;20434;-64
2023/05/07 07:14:43;;;;;;;7.85;6.18;;;31.10;43.40;;;;;;5075217;28;20025;-64
2023/05/07 07:17:09;;;;;;;9.05;5.70;;;30.90;43.60;;;;;;5074637;28;20034;-64
2023/05/07 07:19:35;;;;;;;8.07;5.95;;;30.80;43.80;;;;;;5074686;28;20090;-64
2023/05/07 07:22:01;;;;;;;7.18;5.68;;;30.60;44.00;;;;;;5075123;28;20350;-65
2023/05/07 07:24:27;;;;;;;6.88;5.60;;;30.50;44.20;;;;;;5074648;28;20016;-65
2023/05/07 07:26:55;;;;;;;8.13;6.35;;;30.30;44.40;;;;;;5074669;28;20017;-64
2023/05/07 07:29:21;;;;;;;8.00;5.68;;;30.20;44.50;;;;;;5074433;28;20086;-65
2023/05/07 07:31:49;;;;;;;7.93;5.60;;;30.20;44.70;;;;;;5074755;28;20029;-65
2023/05/07 07:34:16;;;;;;;8.77;6.88;;;30.10;44.90;;;;;;5074476;28;20082;-65
2023/05/07 07:36:42;;;;;;;7.80;5.65;;;30.20;45.10;;;;;;5075019;28;20035;-64
2023/05/07 07:39:08;;;;;;;9.10;6.18;;;30.30;45.10;;;;;;5075011;28;20025;-64
2023/05/07 07:41:34;;;;;;;8.43;6.70;;;30.40;44.90;;;;;;5074277;28;20028;-65
2023/05/07 07:44:00;;;;;;;8.88;6.80;;;30.40;44.70;;;;;;5075622;28;20036;-64
2023/05/07 07:46:26;;;;;;;8.13;6.40;;;30.40;44.60;;;;;;5078273;28;20036;-64
2023/05/07 07:48:52;;;;;;;9.98;6.85;;;30.40;44.50;;;;;;5077773;28;20054;-65
2023/05/07 07:51:18;;;;;;;10.98;7.47;;;30.40;44.70;;;;;;5078095;28;20115;-64
2023/05/07 07:53:44;;;;;;;10.63;7.35;;;30.30;44.80;;;;;;5077786;28;20147;-64
2023/05/07 07:56:09;;;;;;;10.18;7.38;;;30.20;44.80;;;;;;5076628;28;20048;-64
2023/05/07 07:58:37;;;;;;;10.05;7.80;;;30.10;45.10;;;;;;5077737;28;20025;-64
2023/05/07 08:01:03;;;;;;;9.35;6.95;;;30.00;44.80;;;;;;5077731;28;20032;-64
2023/05/07 08:03:32;;;;;;;10.77;7.88;;;29.80;45.10;;;;;;5076774;28;20024;-65
2023/05/07 08:05:57;;;;;;;10.73;7.72;;;29.60;45.30;;;;;;5077698;28;20028;-64
2023/05/07 08:08:23;;;;;;;8.68;7.07;;;29.40;45.50;;;;;;5077655;28;20024;-64
2023/05/07 08:10:50;;;;;;;9.73;6.82;;;29.10;45.90;;;;;;5078167;28;20043;-64
2023/05/07 08:13:17;;;;;;;10.43;7.28;;;28.80;46.20;;;;;;5078124;28;20021;-64
2023/05/07 08:15:43;;;;;;;9.65;7.40;;;28.60;46.50;;;;;;5077572;28;20013;-64
2023/05/07 08:18:09;;;;;;;10.70;8.05;;;28.40;46.90;;;;;;5077530;28;20028;-64
2023/05/07 08:20:39;;;;;;;12.30;8.48;;;28.20;47.40;;;;;;5077497;28;20032;-64
2023/05/07 08:23:06;;;;;;;10.32;7.63;;;28.00;47.40;;;;;;5077526;28;20396;-64
2023/05/07 08:25:36;;;;;;;10.30;7.78;;;27.80;47.90;;;;;;5077360;28;20472;-64
2023/05/07 08:28:03;;;;;;;10.40;8.13;;;27.60;48.30;;;;;;5077304;28;20357;-64
2023/05/07 08:30:29;;;;;;;10.75;8.05;;;27.50;48.50;;;;;;5077564;28;20024;-64
2023/05/07 08:32:54;;;;;;;10.02;7.43;;;27.40;48.60;;;;;;5076123;28;20024;-65
2023/05/07 08:35:20;;;;;;;9.77;7.78;;;27.30;48.90;;;;;;5077418;28;20115;-64
2023/05/07 08:37:46;;;;;;;10.55;7.45;;;27.10;49.10;;;;;;5077099;28;20031;-64
2023/05/07 08:40:12;;;;;;;9.40;6.97;;;27.10;49.30;;;;;;5077275;28;20029;-64
2023/05/07 08:42:41;;;;;;;10.75;7.03;;;27.00;49.40;;;;;;5077206;28;20025;-64
2023/05/07 08:45:10;;;;;;;8.32;6.43;;;27.00;49.10;;;;;;5076968;28;20028;-64
2023/05/07 08:47:46;;;;;;;8.90;7.15;;;26.90;49.10;;;;;;5077073;28;20028;-64
2023/05/07 08:50:12;;;;;;;10.73;7.00;;;26.90;49.00;;;;;;5077118;28;20035;-64
2023/05/07 08:52:42;;;;;;;9.15;6.75;;;26.80;49.30;;;;;;5076983;28;20035;-64
2023/05/07 08:55:08;;;;;;;10.10;7.15;;;26.70;49.50;;;;;;5074869;28;20469;-64
2023/05/07 08:57:35;;;;;;;11.48;7.93;;;26.70;49.70;;;;;;5076641;28;20029;-64
2023/05/07 09:00:02;;;;;;;9.85;7.63;;;26.70;49.80;;;;;;5077141;28;20024;-64
2023/05/07 09:02:28;;;;;;;11.73;7.90;;;26.70;50.10;;;;;;5076461;28;20343;-64
2023/05/07 09:04:55;;;;;;;10.45;7.93;;;26.70;50.20;;;;;;5076505;28;20085;-64
2023/05/07 09:07:22;;;;;;;10.52;8.05;;;26.60;50.10;;;;;;5076685;28;20048;-64
2023/05/07 09:09:48;;;;;;;10.13;7.63;;;26.60;50.10;;;;;;5076455;28;20024;-64
2023/05/07 09:12:14;;;;;;;9.95;7.38;;;26.60;50.10;;;;;;5076342;28;20031;-64
2023/05/07 09:14:40;;;;;;;6.38;5.20;;;26.60;50.10;;;;;;5076347;28;20020;-64
2023/05/07 09:17:06;;;;;;;5.28;4.10;;;26.70;49.70;;;;;;5076530;28;20074;-64
2023/05/07 09:19:32;;;;;;;5.90;4.10;;;26.60;48.40;;;;;;5076480;28;20032;-64
2023/05/07 09:21:59;;;;;;;5.03;4.18;;;26.60;48.00;;;;;;5075254;28;20069;-64
2023/05/07 09:24:25;;;;;;;5.50;3.58;;;26.70;47.00;;;;;;5076117;28;20428;-64
2023/05/07 09:26:51;;;;;;;5.97;4.68;;;26.60;47.00;;;;;;5075081;28;20029;-64
2023/05/07 09:29:18;;;;;;;4.85;4.10;;;26.70;46.40;;;;;;5075953;28;20025;-64
2023/05/07 09:31:44;;;;;;;6.85;3.80;;;26.60;46.00;;;;;;5075932;28;20096;-64
2023/05/07 09:34:10;;;;;;;5.40;3.78;;;26.60;45.70;;;;;;5076501;28;20095;-64
2023/05/07 09:36:35;;;;;;;4.45;3.83;;;26.60;45.70;;;;;;5075951;28;20020;-65
2023/05/07 09:39:01;;;;;;;4.53;3.63;;;26.60;45.70;;;;;;5076095;28;20028;-64
2023/05/07 09:41:31;;;;;;;4.00;3.50;;;26.70;45.60;;;;;;5075999;28;20074;-64
2023/05/07 09:43:58;;;;;;;4.25;3.75;;;26.90;45.20;;;;;;5075728;28;20366;-64
2023/05/07 09:46:36;;;;;;;6.20;4.50;;;26.90;45.20;;;;;;5075986;28;20020;-64
2023/05/07 09:49:02;;;;;;;4.70;3.83;;;27.10;44.80;;;;;;5074631;28;20386;-64
2023/05/07 09:51:41;;;;;;;4.82;3.80;;;27.20;44.90;;;;;;5074605;28;20024;-64
2023/05/07 09:54:07;;;;;;;4.70;4.07;;;27.40;44.60;;;;;;5075684;28;20040;-64
2023/05/07 09:56:34;;;;;;;6.00;3.92;;;27.50;44.50;;;;;;5075845;28;20025;-65
2023/05/07 09:59:01;;;;;;;5.40;4.28;;;27.80;44.40;;;;;;5075554;28;20446;-64
2023/05/07 10:01:28;;;;;;;6.35;4.13;;;28.00;44.10;;;;;;5075642;28;20382;-64
2023/05/07 10:03:54;;;;;;;6.72;4.40;;;28.20;43.70;;;;;;5075460;28;20020;-64
2023/05/07 10:06:22;;;;;;;9.10;4.35;;;28.30;43.50;;;;;;5074550;28;20039;-64
2023/05/07 10:08:49;;;;;;;6.57;4.78;;;28.40;43.40;;;;;;5075310;28;20090;-65
2023/05/07 10:11:15;;;;;;;7.75;5.22;;;28.40;42.70;;;;;;5075614;28;20024;-64
2023/05/07 10:13:42;;;;;;;7.70;5.05;;;28.40;42.00;;;;;;5075529;28;20063;-64
2023/05/07 10:16:08;;;;;;;6.40;4.60;;;28.20;42.20;;;;;;5075872;28;20020;-64
2023/05/07 10:18:34;;;;;;;5.85;4.45;;;28.10;42.50;;;;;;5075528;28;20457;-64
2023/05/07 10:21:19;;;;;;;6.78;4.30;;;28.20;42.70;;;;;;5075795;28;20032;-64
2023/05/07 10:23:48;;;;;;;9.40;5.45;;;28.30;42.30;;;;;;5075504;28;20070;-64
2023/05/07 10:26:15;;;;;;;6.22;4.60;;;28.40;42.90;;;;;;5069909;28;20067;-63
2023/05/07 10:28:45;;;;;;;6.90;5.32;;;28.40;43.00;;;;;;5061845;28;20029;-65
2023/05/07 10:31:30;;;;;;;6.65;4.70;;;28.50;42.50;;;;;;5056752;28;20035;-63
2023/05/07 10:33:58;;;;;;;8.02;5.30;;;28.50;42.50;;;;;;5053149;28;20386;-71
2023/05/07 10:36:25;;;;;;;6.38;4.35;;;28.50;42.50;;;;;;5053276;28;20100;-71
2023/05/07 10:38:51;;;;;;;5.85;4.75;;;28.60;42.60;;;;;;5052180;28;20031;-71
2023/05/07 10:41:18;;;;;;;5.82;4.50;;;28.70;42.70;;;;;;5054104;28;20078;-64
2023/05/07 10:43:45;;;;;;;6.13;4.93;;;28.70;42.70;;;;;;5053784;28;20017;-70
2023/05/07 10:46:22;;;;;;;5.57;4.60;;;28.70;42.60;;;;;;5055698;28;20024;-70
2023/05/07 10:49:04;;;;;;;7.93;6.20;;;28.80;42.40;;;;;;5055205;28;20071;-70
2023/05/07 10:51:32;;;;;;;5.75;4.53;;;28.70;42.80;;;;;;5055099;28;20040;-70
2023/05/07 10:54:12;;;;;;;6.85;4.65;;;28.70;43.20;;;;;;5054908;28;20048;-70
2023/05/07 10:56:40;;;;;;;8.48;5.57;;;28.70;43.10;;;;;;5055155;28;20063;-71
2023/05/07 10:59:20;;;;;;;8.00;5.80;;;28.70;43.40;;;;;;5055101;28;20048;-71
2023/05/07 11:01:58;;;;;;;8.57;5.95;;;28.60;43.30;;;;;;5054989;28;20028;-71
2023/05/07 11:04:26;;;;;;;7.85;6.10;;;28.60;43.10;;;;;;5055067;28;20021;-71
2023/05/07 11:07:06;;;;;;;9.80;6.35;;;28.50;43.50;;;;;;5054755;28;20033;-71
2023/05/07 11:09:51;;;;;;;8.07;5.68;;;28.50;43.80;;;;;;5054919;28;20059;-71
2023/05/07 11:12:43;;;;;;;11.00;6.75;;;28.40;44.00;;;;;;5055160;28;20386;-71
2023/05/07 11:15:10;;;;;;;8.05;5.63;;;28.40;44.40;;;;;;5054622;28;20029;-71
2023/05/07 11:17:57;;;;;;;10.27;6.93;;;28.40;44.60;;;;;;5055207;28;20037;-71
2023/05/07 11:20:49;;;;;;;9.38;6.35;;;28.40;44.60;;;;;;5058446;28;20032;-71
2023/05/07 11:23:33;;;;;;;10.27;7.72;;;28.40;44.40;;;;;;5058376;28;20076;-71
2023/05/07 11:26:10;;;;;;;11.77;8.57;;;28.50;44.80;;;;;;5058720;28;20124;-71
2023/05/07 11:28:39;;;;;;;10.57;8.55;;;28.50;44.60;;;;;;5057458;28;20054;-71
2023/05/07 11:31:05;;;;;;;10.18;7.38;;;28.50;44.90;;;;;;5058603;28;20475;-71
2023/05/07 11:33:31;;;;;;;9.45;7.10;;;28.50;45.20;;;;;;5058226;28;20071;-71
2023/05/07 11:35:59;;;;;;;9.82;7.90;;;28.50;45.50;;;;;;5058516;28;20032;-71
2023/05/07 11:38:25;;;;;;;9.50;7.70;;;28.60;45.60;;;;;;5058453;28;20033;-71
2023/05/07 11:40:52;;;;;;;9.00;6.72;;;28.70;45.60;;;;;;5058171;28;20040;-71
2023/05/07 11:43:18;;;;;;;9.43;7.38;;;28.70;45.50;;;;;;5058053;28;20063;-71
2023/05/07 11:45:48;;;;;;;9.32;7.00;;;28.80;45.60;;;;;;5058603;28;20025;-71
2023/05/07 11:48:15;;;;;;;11.02;8.95;;;28.90;45.40;;;;;;5057150;28;20029;-71
2023/05/07 11:50:59;;;;;;;12.10;9.35;;;28.90;45.10;;;;;;5058026;28;20029;-71
2023/05/07 11:53:26;;;;;;;13.25;10.40;;;28.90;44.70;;;;;;5058186;28;20492;-71
2023/05/07 11:55:58;;;;;;;12.85;9.85;;;28.90;44.90;;;;;;5057741;28;20048;-71
2023/05/07 11:58:25;;;;;;;11.82;9.45;;;28.90;44.80;;;;;;5058077;28;20033;-71
2023/05/07 12:00:52;;;;;;;13.60;8.75;;;28.90;44.90;;;;;;5058066;28;20096;-71
2023/05/07 12:03:18;;;;;;;14.30;10.18;;;29.00;44.80;;;;;;5057676;28;20031;-71
2023/05/07 12:05:45;;;;;;;10.55;8.77;;;29.00;44.60;;;;;;5057698;28;20029;-71
2023/05/07 12:08:15;;;;;;;11.77;8.80;;;29.00;44.60;;;;;;5057608;28;20021;-71
2023/05/07 12:10:43;;;;;;;9.32;7.15;;;29.00;44.50;;;;;;5056996;28;20029;-71
2023/05/07 12:13:35;;;;;;;10.50;8.40;;;29.00;44.40;;;;;;5057511;28;20051;-71
2023/05/07 12:16:03;;;;;;;14.55;8.63;;;29.00;44.30;;;;;;5054682;28;20040;-71
2023/05/07 12:18:29;;;;;;;11.80;8.80;;;29.00;44.30;;;;;;5057722;28;20051;-71
2023/05/07 12:20:56;;;;;;;9.73;7.45;;;29.10;44.20;;;;;;5057402;28;20025;-71
2023/05/07 12:23:22;;;;;;;10.35;7.90;;;29.00;44.10;;;;;;5057279;28;20024;-70
2023/05/07 12:25:48;;;;;;;11.65;9.70;;;29.10;44.00;;;;;;5057316;28;20316;-71
2023/05/07 12:28:16;;;;;;;10.43;8.30;;;29.10;43.80;;;;;;5057189;28;20496;-71
2023/05/07 12:30:46;;;;;;;13.38;9.30;;;29.10;44.00;;;;;;5056325;28;20026;-71
2023/05/07 12:33:16;;;;;;;11.85;8.77;;;29.10;44.10;;;;;;5056378;28;20099;-71
2023/05/07 12:35:43;;;;;;;12.52;8.50;;;29.20;44.10;;;;;;5057646;28;20441;-71
2023/05/07 12:38:11;;;;;;;12.73;9.73;;;29.20;44.10;;;;;;5057340;28;20029;-71
2023/05/07 12:40:42;;;;;;;12.25;9.23;;;29.30;44.10;;;;;;5057030;28;20024;-71
2023/05/07 12:43:16;;;;;;;10.38;8.10;;;29.30;43.90;;;;;;5057195;28;20040;-71